Caryville, TN

1:36 PM EST on December 26, 2014 (GMT -0500)
Norris Farms | Change Station
CLOSE
Current Station
Personal Weather Station
Location: Norris, TN
Elevation: 1073 ft
Nearby Weather Stations

Elev 1073 ft 36.20 °N, 84.06 °W | Updated 12 seconds ago

Clear
Clear
46.4 °F
Feels Like 46 °F
N
1.0
Wind Variable Wind from SW
Gusts 7.0 mph

Today
High -- | Low -- °F
--% Chance of Precip.
Yesterday
High -- | Low -- °F
Precip. -- in
7:46 AM 5:28 PM
Waxing Crescent, 28% visible
Pressure 30.38 in
Visibility 10.0 miles
Clouds Clear
Windchill 46 °F
Dew Point 39 °F
Humidity 75%
Rainfall 0.02 in
Snow Depth Not available.
UV 3 out of 12
Pollen .10 out of 12
Air Quality Not available.
Flu Activity Not available.
METAR KOQT 261753Z AUTO 00000KT 10SM CLR 09/02 A3034 RMK AO2 SLP285 I6001 T00890022 10089 21011 58011

More Conditions Fewer Conditions

Pressure 30.38 in
Visibility 10.0 miles
Clouds Clear
Windchill 46 °F
Dew Point 39 °F
Humidity 75%
Rainfall 0.02 in
Snow Depth Not available.
UV 3 out of 12
Pollen .10 out of 12
Air Quality Not available.
Flu Activity Not available.
METAR KOQT 261753Z AUTO 00000KT 10SM CLR 09/02 A3034 RMK AO2 SLP285 I6001 T00890022 10089 21011 58011

More Conditions Fewer Conditions

10-Day Weather Forecast

Almanac

Astronomy

Dec. 26, 2014 Rise Set
Actual Time
Civil Twilight
Nautical Twilight
Astronomical Twilight
Moon
Length of Visible Light
Length of Day
Tomorrow will be .
, % of the Moon is Illuminated

Today's Extremes

State Highs State Lows

Community

WunderPhotos

Upload Photos

1,780,663 photos uploaded!

WunderBlogs® & News

Nearby

Air Quality

  Air Quality AQ Index Pollutant
Not available.

Snow Depth

Station Depth Elevation

Earthquake Activity

City Distance Mag. Time & Date
Minimum magnitude displayed is 2.5.

Coastal Water Temperatures

Place Temperature

Nearby Weather Stations